sensor_id;sensor_type;location;lat;lon;timestamp;pressure;altitude;pressure_sealevel;temperature;humidity
38852;BME280;24605;50.092;9.182;2023-02-04T00:01:10;99088.47;;;5.44;100.00
38852;BME280;24605;50.092;9.182;2023-02-04T00:03:36;99094.50;;;5.45;100.00
38852;BME280;24605;50.092;9.182;2023-02-04T00:06:04;99074.59;;;5.32;100.00
38852;BME280;24605;50.092;9.182;2023-02-04T00:08:31;99084.72;;;5.48;100.00
38852;BME280;24605;50.092;9.182;2023-02-04T00:10:57;99091.09;;;5.44;100.00
38852;BME280;24605;50.092;9.182;2023-02-04T00:13:24;99072.91;;;5.31;100.00
38852;BME280;24605;50.092;9.182;2023-02-04T00:15:50;99090.97;;;5.46;100.00
38852;BME280;24605;50.092;9.182;2023-02-04T00:18:17;99092.53;;;5.36;100.00
38852;BME280;24605;50.092;9.182;2023-02-04T00:20:43;99097.66;;;5.37;100.00
38852;BME280;24605;50.092;9.182;2023-02-04T00:23:11;99095.06;;;5.37;100.00
38852;BME280;24605;50.092;9.182;2023-02-04T00:25:37;99121.44;;;5.44;100.00
38852;BME280;24605;50.092;9.182;2023-02-04T00:28:04;99074.59;;;5.20;100.00
38852;BME280;24605;50.092;9.182;2023-02-04T00:30:30;99122.91;;;5.48;100.00
38852;BME280;24605;50.092;9.182;2023-02-04T00:32:57;99123.03;;;5.46;100.00
38852;BME280;24605;50.092;9.182;2023-02-04T00:35:24;99118.84;;;5.44;100.00
38852;BME280;24605;50.092;9.182;2023-02-04T00:37:51;99115.09;;;5.48;100.00
38852;BME280;24605;50.092;9.182;2023-02-04T00:40:19;99107.81;;;5.40;100.00
38852;BME280;24605;50.092;9.182;2023-02-04T00:42:45;99102.34;;;5.32;100.00
38852;BME280;24605;50.092;9.182;2023-02-04T00:45:12;99113.06;;;5.27;100.00
38852;BME280;24605;50.092;9.182;2023-02-04T00:47:38;99100.38;;;5.23;100.00
38852;BME280;24605;50.092;9.182;2023-02-04T00:50:05;99107.44;;;5.21;100.00
38852;BME280;24605;50.092;9.182;2023-02-04T00:52:32;99114.00;;;5.13;100.00
38852;BME280;24605;50.092;9.182;2023-02-04T00:54:58;99089.19;;;4.96;100.00
38852;BME280;24605;50.092;9.182;2023-02-04T00:57:26;99133.66;;;5.05;100.00
38852;BME280;24605;50.092;9.182;2023-02-04T00:59:52;99115.16;;;4.96;100.00
38852;BME280;24605;50.092;9.182;2023-02-04T01:02:19;99082.00;;;4.74;100.00
38852;BME280;24605;50.092;9.182;2023-02-04T01:04:45;99141.22;;;4.95;100.00
38852;BME280;24605;50.092;9.182;2023-02-04T01:07:11;99131.75;;;4.94;100.00
38852;BME280;24605;50.092;9.182;2023-02-04T01:09:38;99156.63;;;4.98;100.00
38852;BME280;24605;50.092;9.182;2023-02-04T01:12:05;99140.53;;;4.93;100.00
38852;BME280;24605;50.092;9.182;2023-02-04T01:14:32;99133.03;;;4.88;100.00
38852;BME280;24605;50.092;9.182;2023-02-04T01:16:59;99161.22;;;5.07;100.00
38852;BME280;24605;50.092;9.182;2023-02-04T01:19:26;99157.25;;;5.01;100.00
38852;BME280;24605;50.092;9.182;2023-02-04T01:21:52;99172.53;;;5.06;100.00
38852;BME280;24605;50.092;9.182;2023-02-04T01:24:18;99175.44;;;5.01;100.00
38852;BME280;24605;50.092;9.182;2023-02-04T01:26:45;99166.91;;;4.99;100.00
38852;BME280;24605;50.092;9.182;2023-02-04T01:29:11;99182.63;;;4.98;100.00
38852;BME280;24605;50.092;9.182;2023-02-04T01:31:39;99178.47;;;4.95;100.00
38852;BME280;24605;50.092;9.182;2023-02-04T01:34:05;99176.91;;;4.93;100.00
38852;BME280;24605;50.092;9.182;2023-02-04T01:36:32;99185.22;;;4.98;100.00
38852;BME280;24605;50.092;9.182;2023-02-04T01:38:58;99210.88;;;4.90;100.00
38852;BME280;24605;50.092;9.182;2023-02-04T01:41:25;99194.97;;;4.94;100.00
38852;BME280;24605;50.092;9.182;2023-02-04T01:43:53;99196.50;;;4.84;100.00
38852;BME280;24605;50.092;9.182;2023-02-04T01:46:19;99196.94;;;4.78;100.00
38852;BME280;24605;50.092;9.182;2023-02-04T01:48:47;99209.81;;;4.79;100.00
38852;BME280;24605;50.092;9.182;2023-02-04T01:51:16;99212.22;;;4.82;100.00
38852;BME280;24605;50.092;9.182;2023-02-04T01:53:45;99212.06;;;4.71;100.00
38852;BME280;24605;50.092;9.182;2023-02-04T01:56:15;99210.22;;;4.73;100.00
38852;BME280;24605;50.092;9.182;2023-02-04T01:58:42;99220.91;;;4.68;100.00
38852;BME280;24605;50.092;9.182;2023-02-04T02:01:10;99210.00;;;4.76;100.00
38852;BME280;24605;50.092;9.182;2023-02-04T02:03:38;99222.75;;;4.66;100.00
38852;BME280;24605;50.092;9.182;2023-02-04T02:06:07;99222.44;;;4.58;100.00
38852;BME280;24605;50.092;9.182;2023-02-04T02:08:34;99223.06;;;4.62;100.00
38852;BME280;24605;50.092;9.182;2023-02-04T02:11:01;99224.41;;;4.54;100.00
38852;BME280;24605;50.092;9.182;2023-02-04T02:13:28;99224.56;;;4.51;100.00
38852;BME280;24605;50.092;9.182;2023-02-04T02:15:54;99216.25;;;4.46;100.00
38852;BME280;24605;50.092;9.182;2023-02-04T02:18:21;99221.28;;;4.49;100.00
38852;BME280;24605;50.092;9.182;2023-02-04T02:20:49;99225.72;;;4.47;100.00
38852;BME280;24605;50.092;9.182;2023-02-04T02:23:24;99225.56;;;4.36;100.00
38852;BME280;24605;50.092;9.182;2023-02-04T02:25:53;99224.19;;;4.30;100.00
38852;BME280;24605;50.092;9.182;2023-02-04T02:28:21;99235.19;;;4.34;100.00
38852;BME280;24605;50.092;9.182;2023-02-04T02:30:49;99218.66;;;4.22;100.00
38852;BME280;24605;50.092;9.182;2023-02-04T02:33:18;99241.91;;;4.23;100.00
38852;BME280;24605;50.092;9.182;2023-02-04T02:35:45;99234.41;;;4.19;100.00
38852;BME280;24605;50.092;9.182;2023-02-04T02:38:13;99236.53;;;4.27;100.00
38852;BME280;24605;50.092;9.182;2023-02-04T02:40:40;99229.31;;;4.17;100.00
38852;BME280;24605;50.092;9.182;2023-02-04T02:43:13;99227.63;;;4.31;100.00
38852;BME280;24605;50.092;9.182;2023-02-04T02:45:40;99201.41;;;4.21;100.00
38852;BME280;24605;50.092;9.182;2023-02-04T02:48:08;99246.81;;;4.28;100.00
38852;BME280;24605;50.092;9.182;2023-02-04T02:50:35;99237.63;;;4.37;100.00
38852;BME280;24605;50.092;9.182;2023-02-04T02:53:02;99238.66;;;4.34;100.00
38852;BME280;24605;50.092;9.182;2023-02-04T02:55:29;99254.66;;;4.41;100.00
38852;BME280;24605;50.092;9.182;2023-02-04T02:57:56;99261.63;;;4.41;100.00
38852;BME280;24605;50.092;9.182;2023-02-04T03:00:26;99260.81;;;4.40;100.00
38852;BME280;24605;50.092;9.182;2023-02-04T03:02:56;99264.03;;;4.44;100.00
38852;BME280;24605;50.092;9.182;2023-02-04T03:05:24;99094.13;;;3.38;100.00
38852;BME280;24605;50.092;9.182;2023-02-04T03:07:51;99261.63;;;4.41;100.00
38852;BME280;24605;50.092;9.182;2023-02-04T03:10:18;99259.63;;;4.17;100.00
38852;BME280;24605;50.092;9.182;2023-02-04T03:12:45;99276.09;;;4.30;100.00
38852;BME280;24605;50.092;9.182;2023-02-04T03:15:13;99280.66;;;4.27;100.00
38852;BME280;24605;50.092;9.182;2023-02-04T03:17:41;99288.44;;;4.27;100.00
38852;BME280;24605;50.092;9.182;2023-02-04T03:20:10;99294.78;;;4.22;100.00
38852;BME280;24605;50.092;9.182;2023-02-04T03:22:36;99282.25;;;4.15;100.00
38852;BME280;24605;50.092;9.182;2023-02-04T03:25:03;99294.22;;;4.03;100.00
38852;BME280;24605;50.092;9.182;2023-02-04T03:27:30;99290.69;;;4.04;100.00
38852;BME280;24605;50.092;9.182;2023-02-04T03:29:56;99294.13;;;4.04;100.00
38852;BME280;24605;50.092;9.182;2023-02-04T03:32:23;99297.28;;;4.10;100.00
38852;BME280;24605;50.092;9.182;2023-02-04T03:34:51;99293.03;;;4.08;100.00
38852;BME280;24605;50.092;9.182;2023-02-04T03:37:17;99290.69;;;4.04;100.00
38852;BME280;24605;50.092;9.182;2023-02-04T03:39:44;99293.47;;;4.01;100.00
38852;BME280;24605;50.092;9.182;2023-02-04T03:42:10;99292.44;;;4.03;100.00
38852;BME280;24605;50.092;9.182;2023-02-04T03:44:36;99284.94;;;3.99;100.00
38852;BME280;24605;50.092;9.182;2023-02-04T03:47:03;99301.72;;;4.07;100.00
38852;BME280;24605;50.092;9.182;2023-02-04T03:49:30;99303.66;;;3.89;100.00
38852;BME280;24605;50.092;9.182;2023-02-04T03:51:58;99324.81;;;4.12;100.00
38852;BME280;24605;50.092;9.182;2023-02-04T03:54:25;99343.91;;;3.97;100.00
38852;BME280;24605;50.092;9.182;2023-02-04T03:56:51;99323.41;;;4.21;100.00
38852;BME280;24605;50.092;9.182;2023-02-04T03:59:18;99332.47;;;4.28;100.00
38852;BME280;24605;50.092;9.182;2023-02-04T04:01:44;99335.34;;;4.09;100.00
38852;BME280;24605;50.092;9.182;2023-02-04T04:04:11;99327.66;;;4.22;100.00
38852;BME280;24605;50.092;9.182;2023-02-04T04:06:37;99322.00;;;4.15;100.00
38852;BME280;24605;50.092;9.182;2023-02-04T04:09:05;99330.34;;;4.20;100.00
38852;BME280;24605;50.092;9.182;2023-02-04T04:11:31;99318.69;;;4.13;100.00
38852;BME280;24605;50.092;9.182;2023-02-04T04:13:58;99335.53;;;4.06;100.00
38852;BME280;24605;50.092;9.182;2023-02-04T04:16:25;99329.06;;;3.99;100.00
38852;BME280;24605;50.092;9.182;2023-02-04T04:18:51;99330.25;;;3.93;100.00
38852;BME280;24605;50.092;9.182;2023-02-04T04:21:18;99335.34;;;3.80;100.00
38852;BME280;24605;50.092;9.182;2023-02-04T04:23:44;99328.56;;;3.78;100.00
38852;BME280;24605;50.092;9.182;2023-02-04T04:26:12;99339.81;;;3.78;100.00
38852;BME280;24605;50.092;9.182;2023-02-04T04:28:39;99281.75;;;3.36;100.00
38852;BME280;24605;50.092;9.182;2023-02-04T04:31:05;99345.59;;;3.67;100.00
38852;BME280;24605;50.092;9.182;2023-02-04T04:33:31;99355.44;;;3.76;100.00
38852;BME280;24605;50.092;9.182;2023-02-04T04:35:58;99356.84;;;3.82;100.00
38852;BME280;24605;50.092;9.182;2023-02-04T04:38:24;99343.50;;;3.74;100.00
38852;BME280;24605;50.092;9.182;2023-02-04T04:40:51;99341.00;;;3.87;100.00
38852;BME280;24605;50.092;9.182;2023-02-04T04:43:19;99366.78;;;3.90;100.00
38852;BME280;24605;50.092;9.182;2023-02-04T04:45:46;99355.38;;;3.92;100.00
38852;BME280;24605;50.092;9.182;2023-02-04T04:48:12;99353.16;;;3.86;100.00
38852;BME280;24605;50.092;9.182;2023-02-04T04:50:39;99364.44;;;3.85;100.00
38852;BME280;24605;50.092;9.182;2023-02-04T04:53:05;99288.91;;;3.47;100.00
38852;BME280;24605;50.092;9.182;2023-02-04T04:55:35;99362.03;;;3.82;100.00
38852;BME280;24605;50.092;9.182;2023-02-04T04:58:01;99363.03;;;3.80;100.00
38852;BME280;24605;50.092;9.182;2023-02-04T05:00:29;99359.16;;;3.87;100.00
38852;BME280;24605;50.092;9.182;2023-02-04T05:02:56;99342.56;;;3.75;100.00
38852;BME280;24605;50.092;9.182;2023-02-04T05:05:22;99388.88;;;3.81;100.00
38852;BME280;24605;50.092;9.182;2023-02-04T05:07:49;99382.94;;;3.79;100.00
38852;BME280;24605;50.092;9.182;2023-02-04T05:10:16;99394.00;;;3.83;100.00
38852;BME280;24605;50.092;9.182;2023-02-04T05:12:42;99380.91;;;3.70;100.00
38852;BME280;24605;50.092;9.182;2023-02-04T05:15:09;99387.34;;;3.63;100.00
38852;BME280;24605;50.092;9.182;2023-02-04T05:17:37;99398.84;;;3.58;100.00
38852;BME280;24605;50.092;9.182;2023-02-04T05:20:04;99407.91;;;3.51;100.00
38852;BME280;24605;50.092;9.182;2023-02-04T05:22:30;99403.53;;;3.52;100.00
38852;BME280;24605;50.092;9.182;2023-02-04T05:24:57;99397.19;;;3.57;100.00
38852;BME280;24605;50.092;9.182;2023-02-04T05:27:23;99405.91;;;3.71;100.00
38852;BME280;24605;50.092;9.182;2023-02-04T05:29:50;99410.91;;;3.74;100.00
38852;BME280;24605;50.092;9.182;2023-02-04T05:32:16;99360.59;;;3.48;100.00
38852;BME280;24605;50.092;9.182;2023-02-04T05:34:44;99405.63;;;3.75;100.00
38852;BME280;24605;50.092;9.182;2023-02-04T05:37:11;99402.31;;;3.73;100.00
38852;BME280;24605;50.092;9.182;2023-02-04T05:39:39;99406.59;;;3.74;100.00
38852;BME280;24605;50.092;9.182;2023-02-04T05:42:06;99419.06;;;3.68;100.00
38852;BME280;24605;50.092;9.182;2023-02-04T05:44:32;99423.66;;;3.63;100.00
38852;BME280;24605;50.092;9.182;2023-02-04T05:46:59;99416.66;;;3.49;100.00
38852;BME280;24605;50.092;9.182;2023-02-04T05:49:25;99424.69;;;3.60;100.00
38852;BME280;24605;50.092;9.182;2023-02-04T05:51:53;99422.28;;;3.57;100.00
38852;BME280;24605;50.092;9.182;2023-02-04T05:54:19;99418.84;;;3.56;100.00
38852;BME280;24605;50.092;9.182;2023-02-04T05:56:46;99407.97;;;3.50;100.00
38852;BME280;24605;50.092;9.182;2023-02-04T05:59:12;99423.59;;;3.64;100.00
38852;BME280;24605;50.092;9.182;2023-02-04T06:01:39;99420.00;;;3.51;100.00
38852;BME280;24605;50.092;9.182;2023-02-04T06:04:06;99414.31;;;3.60;100.00
38852;BME280;24605;50.092;9.182;2023-02-04T06:06:32;99417.88;;;3.43;100.00
38852;BME280;24605;50.092;9.182;2023-02-04T06:09:01;99435.66;;;3.65;100.00
38852;BME280;24605;50.092;9.182;2023-02-04T06:11:28;99403.38;;;3.55;100.00
38852;BME280;24605;50.092;9.182;2023-02-04T06:13:55;99420.78;;;3.53;100.00
38852;BME280;24605;50.092;9.182;2023-02-04T06:16:22;99431.41;;;3.79;100.00
38852;BME280;24605;50.092;9.182;2023-02-04T06:18:48;99375.78;;;3.23;100.00
38852;BME280;24605;50.092;9.182;2023-02-04T06:21:15;99440.47;;;3.71;100.00
38852;BME280;24605;50.092;9.182;2023-02-04T06:23:42;99415.84;;;3.48;100.00
38852;BME280;24605;50.092;9.182;2023-02-04T06:26:10;99442.22;;;3.71;100.00
38852;BME280;24605;50.092;9.182;2023-02-04T06:28:37;99433.63;;;3.54;100.00
38852;BME280;24605;50.092;9.182;2023-02-04T06:31:04;99450.44;;;3.63;100.00
38852;BME280;24605;50.092;9.182;2023-02-04T06:33:34;99460.06;;;3.61;100.00
38852;BME280;24605;50.092;9.182;2023-02-04T06:36:01;99461.91;;;3.59;100.00
38852;BME280;24605;50.092;9.182;2023-02-04T06:38:27;99468.34;;;3.52;100.00
38852;BME280;24605;50.092;9.182;2023-02-04T06:40:54;99444.72;;;3.26;100.00
38852;BME280;24605;50.092;9.182;2023-02-04T06:43:22;99465.22;;;3.31;100.00
38852;BME280;24605;50.092;9.182;2023-02-04T06:45:49;99460.13;;;3.13;100.00
38852;BME280;24605;50.092;9.182;2023-02-04T06:48:16;99455.53;;;3.02;100.00
38852;BME280;24605;50.092;9.182;2023-02-04T06:50:43;99458.13;;;3.02;100.00
38852;BME280;24605;50.092;9.182;2023-02-04T06:53:10;99439.16;;;2.86;100.00
38852;BME280;24605;50.092;9.182;2023-02-04T06:55:37;99468.63;;;2.99;100.00
38852;BME280;24605;50.092;9.182;2023-02-04T06:58:04;99461.94;;;3.11;100.00
38852;BME280;24605;50.092;9.182;2023-02-04T07:00:32;99466.13;;;3.13;100.00
38852;BME280;24605;50.092;9.182;2023-02-04T07:02:59;99422.84;;;2.84;100.00
38852;BME280;24605;50.092;9.182;2023-02-04T07:05:26;99435.47;;;3.06;100.00
38852;BME280;24605;50.092;9.182;2023-02-04T07:07:52;99477.66;;;3.24;100.00
38852;BME280;24605;50.092;9.182;2023-02-04T07:10:19;99480.91;;;3.27;100.00
38852;BME280;24605;50.092;9.182;2023-02-04T07:12:46;99495.56;;;3.12;100.00
38852;BME280;24605;50.092;9.182;2023-02-04T07:15:13;99496.53;;;3.10;100.00
38852;BME280;24605;50.092;9.182;2023-02-04T07:17:41;99511.59;;;3.19;100.00
38852;BME280;24605;50.092;9.182;2023-02-04T07:20:09;99503.50;;;3.25;100.00
38852;BME280;24605;50.092;9.182;2023-02-04T07:22:36;99510.53;;;3.23;100.00
38852;BME280;24605;50.092;9.182;2023-02-04T07:25:03;99503.25;;;3.14;100.00
38852;BME280;24605;50.092;9.182;2023-02-04T07:27:29;99506.50;;;3.18;100.00
38852;BME280;24605;50.092;9.182;2023-02-04T07:29:56;99520.06;;;3.39;100.00
38852;BME280;24605;50.092;9.182;2023-02-04T07:32:23;99516.63;;;3.38;100.00
38852;BME280;24605;50.092;9.182;2023-02-04T07:34:53;99536.78;;;3.49;100.00
38852;BME280;24605;50.092;9.182;2023-02-04T07:37:19;99523.56;;;3.70;100.00
38852;BME280;24605;50.092;9.182;2023-02-04T07:39:47;99429.69;;;3.01;100.00
38852;BME280;24605;50.092;9.182;2023-02-04T07:42:14;99560.53;;;3.57;100.00
38852;BME280;24605;50.092;9.182;2023-02-04T07:44:41;99562.03;;;3.61;100.00
38852;BME280;24605;50.092;9.182;2023-02-04T07:47:07;99560.13;;;3.65;100.00
38852;BME280;24605;50.092;9.182;2023-02-04T07:49:34;99562.13;;;3.60;100.00
38852;BME280;24605;50.092;9.182;2023-02-04T07:52:02;99583.53;;;3.48;100.00
38852;BME280;24605;50.092;9.182;2023-02-04T07:54:28;99587.13;;;3.61;100.00
38852;BME280;24605;50.092;9.182;2023-02-04T07:56:55;99575.84;;;3.78;100.00
38852;BME280;24605;50.092;9.182;2023-02-04T07:59:21;99581.75;;;3.80;100.00
38852;BME280;24605;50.092;9.182;2023-02-04T08:01:47;99578.09;;;3.84;100.00
38852;BME280;24605;50.092;9.182;2023-02-04T08:04:14;99590.78;;;4.05;100.00
38852;BME280;24605;50.092;9.182;2023-02-04T08:06:40;99571.88;;;4.03;100.00
38852;BME280;24605;50.092;9.182;2023-02-04T08:09:08;99594.19;;;4.21;100.00
38852;BME280;24605;50.092;9.182;2023-02-04T08:11:35;99604.22;;;4.28;100.00
38852;BME280;24605;50.092;9.182;2023-02-04T08:14:01;99606.56;;;4.32;100.00
38852;BME280;24605;50.092;9.182;2023-02-04T08:16:28;99602.19;;;4.33;100.00
38852;BME280;24605;50.092;9.182;2023-02-04T08:18:54;99606.81;;;4.28;100.00
38852;BME280;24605;50.092;9.182;2023-02-04T08:21:20;99609.25;;;4.31;100.00
38852;BME280;24605;50.092;9.182;2023-02-04T08:23:47;99611.75;;;4.32;100.00
38852;BME280;24605;50.092;9.182;2023-02-04T08:26:15;99601.97;;;4.21;100.00
38852;BME280;24605;50.092;9.182;2023-02-04T08:28:42;99601.47;;;4.15;100.00
38852;BME280;24605;50.092;9.182;2023-02-04T08:31:08;99580.16;;;3.94;100.00
38852;BME280;24605;50.092;9.182;2023-02-04T08:33:36;99625.25;;;4.23;100.00
38852;BME280;24605;50.092;9.182;2023-02-04T08:36:04;99625.19;;;4.08;100.00
38852;BME280;24605;50.092;9.182;2023-02-04T08:38:31;99634.03;;;4.20;100.00
38852;BME280;24605;50.092;9.182;2023-02-04T08:40:58;99640.00;;;4.06;100.00
38852;BME280;24605;50.092;9.182;2023-02-04T08:43:26;99585.53;;;3.58;100.00
38852;BME280;24605;50.092;9.182;2023-02-04T08:45:53;99656.59;;;4.04;100.00
38852;BME280;24605;50.092;9.182;2023-02-04T08:48:20;99642.94;;;4.00;100.00
38852;BME280;24605;50.092;9.182;2023-02-04T08:50:46;99636.13;;;4.14;100.00
38852;BME280;24605;50.092;9.182;2023-02-04T08:53:13;99660.91;;;4.35;100.00
38852;BME280;24605;50.092;9.182;2023-02-04T08:55:39;99665.59;;;4.29;100.00
38852;BME280;24605;50.092;9.182;2023-02-04T08:58:06;99671.88;;;4.24;100.00
38852;BME280;24605;50.092;9.182;2023-02-04T09:00:34;99666.25;;;4.32;100.00
38852;BME280;24605;50.092;9.182;2023-02-04T09:03:01;99679.13;;;4.50;100.00
38852;BME280;24605;50.092;9.182;2023-02-04T09:05:28;99679.94;;;4.50;100.00
38852;BME280;24605;50.092;9.182;2023-02-04T09:07:54;99673.69;;;4.54;100.00
38852;BME280;24605;50.092;9.182;2023-02-04T09:10:21;99674.25;;;4.60;100.00
38852;BME280;24605;50.092;9.182;2023-02-04T09:12:47;99684.69;;;4.74;100.00
38852;BME280;24605;50.092;9.182;2023-02-04T09:15:14;99688.78;;;4.78;100.00
38852;BME280;24605;50.092;9.182;2023-02-04T09:17:42;99678.25;;;4.96;100.00
38852;BME280;24605;50.092;9.182;2023-02-04T09:20:10;99679.00;;;5.12;100.00
38852;BME280;24605;50.092;9.182;2023-02-04T09:22:36;99659.72;;;5.16;100.00
38852;BME280;24605;50.092;9.182;2023-02-04T09:25:03;99661.09;;;5.22;100.00
38852;BME280;24605;50.092;9.182;2023-02-04T09:27:30;99657.03;;;5.32;100.00
38852;BME280;24605;50.092;9.182;2023-02-04T09:29:56;99699.38;;;5.49;100.00
38852;BME280;24605;50.092;9.182;2023-02-04T09:32:23;99696.75;;;5.34;100.00
38852;BME280;24605;50.092;9.182;2023-02-04T09:34:55;99690.06;;;5.16;100.00
38852;BME280;24605;50.092;9.182;2023-02-04T09:37:21;99688.34;;;5.45;100.00
38852;BME280;24605;50.092;9.182;2023-02-04T09:39:49;99667.59;;;5.44;100.00
38852;BME280;24605;50.092;9.182;2023-02-04T09:42:15;99705.06;;;5.99;100.00
38852;BME280;24605;50.092;9.182;2023-02-04T09:44:42;99691.56;;;5.34;100.00
38852;BME280;24605;50.092;9.182;2023-02-04T09:47:10;99699.28;;;5.51;100.00
38852;BME280;24605;50.092;9.182;2023-02-04T09:49:41;99709.03;;;5.61;100.00
38852;BME280;24605;50.092;9.182;2023-02-04T09:52:13;99712.28;;;5.36;100.00
38852;BME280;24605;50.092;9.182;2023-02-04T09:54:40;99712.03;;;5.41;100.00
38852;BME280;24605;50.092;9.182;2023-02-04T09:57:12;99693.41;;;5.18;100.00
38852;BME280;24605;50.092;9.182;2023-02-04T09:59:41;99697.63;;;5.49;100.00
38852;BME280;24605;50.092;9.182;2023-02-04T10:02:18;99719.91;;;5.68;100.00
38852;BME280;24605;50.092;9.182;2023-02-04T10:04:46;99722.78;;;6.07;100.00
38852;BME280;24605;50.092;9.182;2023-02-04T10:07:16;99720.47;;;6.17;100.00
38852;BME280;24605;50.092;9.182;2023-02-04T10:09:47;99737.31;;;6.66;98.98
38852;BME280;24605;50.092;9.182;2023-02-04T10:12:14;99731.03;;;6.55;97.53
38852;BME280;24605;50.092;9.182;2023-02-04T10:14:41;99730.88;;;6.71;96.24
38852;BME280;24605;50.092;9.182;2023-02-04T10:17:09;99734.09;;;6.75;94.58
38852;BME280;24605;50.092;9.182;2023-02-04T10:19:36;99729.72;;;6.21;95.59
38852;BME280;24605;50.092;9.182;2023-02-04T10:22:10;99738.47;;;6.62;93.87
38852;BME280;24605;50.092;9.182;2023-02-04T10:24:42;99742.63;;;6.92;93.32
38852;BME280;24605;50.092;9.182;2023-02-04T10:27:10;99705.59;;;6.99;91.28
38852;BME280;24605;50.092;9.182;2023-02-04T10:29:37;99747.84;;;6.92;91.08
38852;BME280;24605;50.092;9.182;2023-02-04T10:32:24;99749.09;;;6.17;95.07
38852;BME280;24605;50.092;9.182;2023-02-04T10:34:56;99756.41;;;5.95;96.33
38852;BME280;24605;50.092;9.182;2023-02-04T10:37:23;99767.50;;;5.85;98.77
38852;BME280;24605;50.092;9.182;2023-02-04T10:39:51;99738.19;;;6.24;95.81
38852;BME280;24605;50.092;9.182;2023-02-04T10:42:21;99759.78;;;6.54;93.80
38852;BME280;24605;50.092;9.182;2023-02-04T10:44:48;99750.75;;;6.59;96.15
38852;BME280;24605;50.092;9.182;2023-02-04T10:47:16;99757.09;;;6.55;94.33
38852;BME280;24605;50.092;9.182;2023-02-04T10:49:51;99757.63;;;6.33;95.19
38852;BME280;24605;50.092;9.182;2023-02-04T10:52:20;99755.44;;;6.54;93.78
38852;BME280;24605;50.092;9.182;2023-02-04T10:54:47;99758.63;;;6.31;94.07
38852;BME280;24605;50.092;9.182;2023-02-04T10:57:17;99760.22;;;6.88;93.03
38852;BME280;24605;50.092;9.182;2023-02-04T10:59:45;99752.78;;;7.09;92.38
38852;BME280;24605;50.092;9.182;2023-02-04T11:02:31;99740.09;;;6.50;94.43
38852;BME280;24605;50.092;9.182;2023-02-04T11:05:00;99760.06;;;6.22;93.53
38852;BME280;24605;50.092;9.182;2023-02-04T11:07:26;99753.50;;;6.71;91.10
38852;BME280;24605;50.092;9.182;2023-02-04T11:09:54;99733.97;;;7.04;88.83
38852;BME280;24605;50.092;9.182;2023-02-04T11:12:35;99748.94;;;7.79;87.43
38852;BME280;24605;50.092;9.182;2023-02-04T11:15:03;99751.34;;;7.44;88.18
38852;BME280;24605;50.092;9.182;2023-02-04T11:17:32;99746.22;;;7.68;86.71
38852;BME280;24605;50.092;9.182;2023-02-04T11:19:59;99753.97;;;6.90;87.68
38852;BME280;24605;50.092;9.182;2023-02-04T11:22:36;99751.28;;;7.05;87.00
38852;BME280;24605;50.092;9.182;2023-02-04T11:25:30;99748.41;;;7.22;85.69
38852;BME280;24605;50.092;9.182;2023-02-04T11:27:58;99752.66;;;6.98;84.90
38852;BME280;24605;50.092;9.182;2023-02-04T11:30:30;99757.44;;;6.64;82.50
38852;BME280;24605;50.092;9.182;2023-02-04T11:33:01;99756.06;;;6.58;82.41
38852;BME280;24605;50.092;9.182;2023-02-04T11:35:28;99757.88;;;6.70;82.12
38852;BME280;24605;50.092;9.182;2023-02-04T11:37:56;99762.84;;;6.61;82.01
38852;BME280;24605;50.092;9.182;2023-02-04T11:40:28;99753.56;;;6.56;82.99
38852;BME280;24605;50.092;9.182;2023-02-04T11:42:58;99764.66;;;6.73;82.01
38852;BME280;24605;50.092;9.182;2023-02-04T11:45:28;99772.91;;;7.07;81.11
38852;BME280;24605;50.092;9.182;2023-02-04T11:47:57;99763.66;;;6.88;81.62
38852;BME280;24605;50.092;9.182;2023-02-04T11:50:26;99763.31;;;6.53;83.20
38852;BME280;24605;50.092;9.182;2023-02-04T11:52:54;99776.63;;;6.63;84.67
38852;BME280;24605;50.092;9.182;2023-02-04T11:55:22;99773.03;;;6.51;85.72
38852;BME280;24605;50.092;9.182;2023-02-04T11:57:50;99777.66;;;6.04;88.50
38852;BME280;24605;50.092;9.182;2023-02-04T12:00:21;99751.72;;;6.17;89.06
38852;BME280;24605;50.092;9.182;2023-02-04T12:02:49;99736.50;;;6.23;90.31
38852;BME280;24605;50.092;9.182;2023-02-04T12:05:19;99770.03;;;6.57;91.00
38852;BME280;24605;50.092;9.182;2023-02-04T12:07:48;99774.66;;;6.66;89.78
38852;BME280;24605;50.092;9.182;2023-02-04T12:10:23;99780.38;;;6.99;88.01
38852;BME280;24605;50.092;9.182;2023-02-04T12:12:51;99767.47;;;7.10;87.67
38852;BME280;24605;50.092;9.182;2023-02-04T12:15:23;99770.22;;;7.34;85.63
38852;BME280;24605;50.092;9.182;2023-02-04T12:18:00;99759.78;;;7.21;86.68
38852;BME280;24605;50.092;9.182;2023-02-04T12:20:27;99776.28;;;7.35;84.67
38852;BME280;24605;50.092;9.182;2023-02-04T12:22:55;99773.88;;;7.19;85.79
38852;BME280;24605;50.092;9.182;2023-02-04T12:25:22;99780.91;;;7.44;83.65
38852;BME280;24605;50.092;9.182;2023-02-04T12:27:49;99760.84;;;7.32;83.76
38852;BME280;24605;50.092;9.182;2023-02-04T12:30:18;99797.38;;;7.45;84.97
38852;BME280;24605;50.092;9.182;2023-02-04T12:32:47;99790.28;;;7.47;84.34
38852;BME280;24605;50.092;9.182;2023-02-04T12:35:13;99774.81;;;7.31;80.62
38852;BME280;24605;50.092;9.182;2023-02-04T12:37:40;99786.94;;;7.71;80.23
38852;BME280;24605;50.092;9.182;2023-02-04T12:40:08;99771.56;;;7.27;80.53
38852;BME280;24605;50.092;9.182;2023-02-04T12:42:35;99781.59;;;7.46;80.07
38852;BME280;24605;50.092;9.182;2023-02-04T12:45:02;99754.66;;;7.20;78.45
38852;BME280;24605;50.092;9.182;2023-02-04T12:47:28;99747.97;;;7.16;80.41
38852;BME280;24605;50.092;9.182;2023-02-04T12:49:56;99781.03;;;7.02;79.70
38852;BME280;24605;50.092;9.182;2023-02-04T12:52:23;99737.19;;;6.54;79.42
38852;BME280;24605;50.092;9.182;2023-02-04T12:54:50;99788.91;;;7.41;79.46
38852;BME280;24605;50.092;9.182;2023-02-04T12:57:16;99792.97;;;7.32;79.51
38852;BME280;24605;50.092;9.182;2023-02-04T12:59:44;99771.78;;;6.84;80.42
38852;BME280;24605;50.092;9.182;2023-02-04T13:02:11;99794.91;;;7.16;78.18
38852;BME280;24605;50.092;9.182;2023-02-04T13:04:37;99787.44;;;7.37;76.27